UK Observations

EGAA 211750Z 25010KT 9999 FEW011 SCT016 BKN022 07/06 Q1000 EGAC 211750Z 24009KT 200V280 9999 -RADZ FEW012 SCT020 BKN027 08/07 Q1000 EGAE 211750Z 23016KT 9999 SHRA FEW014 BKN021 09/07 Q0999 EGBB 211750Z 15006KT 2000 BR OVC002 03/03 Q1004 EGCC 211750Z VRB03KT 4000 -DZRA FEW005 BKN008 03/02 Q1003 BECMG 6000 NSW EGFF 211750Z AUTO 27021KT 0550 R30/P1500 RA FG VV/// 10/10 Q1006 EGGD 211750Z AUTO 25016KT 0150 R27/0400 FG VV/// 09/09 Q1007 RERA EGGP 211750Z 15007KT 3000 -RA BR BKN004 BKN010 04/04 Q1002 EGGW 211750Z 16005KT 130V200 0600 R08/1100 -RA FG OVC001 02/01 Q1006 RERA EGHH 211750Z 26010KT 9999 -RA BKN004 11/11 Q1008 EGHI 211750Z 23007KT 6000 RA BKN006 OVC012 10/09 Q1007 EGJA 211750Z 25020KT 0500 R26/0750 -DZ FG BKN000 11/// Q1011 EGJB 211750Z 25023KT 1300 R27/1300 -DZ VCFG SCT000 BKN001 11/11 Q1012 EGJJ 211750Z 25024KT 0400 R26/0500 -DZ FG BKN000 OVC001 10/10 Q1013 EGKA 211750Z 23006KT 1400 RADZ BR BKN003 09/09 Q1007 EGKB 211750Z 17014KT 7000 RA BKN004 05/05 Q1006 EGKK 211750Z 15002KT 3800 RA BKN004 OVC007 06/06 Q1007 EGLC 211750Z AUTO 09004KT 7000 -RA BKN007/// OVC017/// //////TCU 06/05 Q1007 EGLF 211750Z 19005KT 150V220 6000 -RADZ BKN005 07/07 Q1006 EGLL 211750Z AUTO VRB03KT 3600 RA BKN003 OVC008 06/05 Q1007 TEMPO 5000 BKN006 EGMC 211750Z 15008KT 120V180 9000 -RA OVC006 04/03 Q1007 EGMD 211750Z 16014KT 9000 -RA BKN004 OVC007 07/07 Q1008 EGNH 211750Z 14013KT 2500 BR OVC002 03/03 Q1002 EGNJ 211750Z 16016KT 7000 FEW008 BKN012 02/01 Q1005 EGNM 211750Z 14007KT 0400 R14/P1500 -DZ FZFG BKN001 00/00 Q1002 EGNS 211750Z 26005KT 210V300 9999 FEW004 SCT012 BKN045 06/06 Q1000 NOSIG EGNT 211750Z 17010KT 130V210 9999 BKN009 00/00 Q1001 EGNV 211750Z 17017KT 9999 SCT008 BKN012 01/M01 Q1002 EGNX 211750Z VRB02KT 9999 -RA OVC006 02/02 Q1004 RERA EGPA 211750Z 16025G35KT 9000 -RASN FEW005 SCT006 BKN010 02/00 Q0997 EGPB 211750Z 15016KT 9999 -RA BKN020 04/01 Q1001 TEMPO RA BKN012 EGPC 211750Z AUTO 16031G45KT 3500 RA FEW005/// SCT015/// 02/01 Q0995 RERA EGPD 211750Z AUTO 16020KT 4000 RA BKN007/// OVC021/// //////TCU 02/01 Q0999 NOSIG EGPE 211750Z 21011KT 9999 FEW025 BKN038 03/M00 Q0995 EGPF 211750Z AUTO VRB02KT 1600 -DZ BKN003/// OVC009/// //////TCU 01/00 Q0999 EGPH 211750Z VRB03KT 3000 DZ SCT005 OVC014 01/01 Q0999 EGPK 211750Z VRB03KT 5000 -SHRA FEW006 SCT014 04/03 Q0998 EGPL 211750Z 24020KT 9999 -RA FEW010 SCT022 BKN040 08/06 Q0991 EGPM 211750Z AUTO 14013KT 9999 FEW002/// SCT017/// BKN034/// 03/M01 Q1001 EGPN 211750Z 08004KT 5000 RASN SCT008 BKN011 02/01 Q0999 EGPO 211750Z 19021KT 6000 RADZ SCT003 BKN006 05/04 Q0989 EGQL 211750Z 15007KT 4200 -DZ BKN006 BKN027 02/01 Q0999 YLO1 EGQS 211750Z 15015KT 6000 -RASN SCT020 BKN040 02/M00 Q0996 WHT EGSC 211750Z 17014KT 9000 RA BKN006 02/02 Q1007 EGSH 211750Z 15011KT 5000 RA BKN005 OVC006 03/02 Q1008 RESN TEMPO 3000 BKN004 EGSS 211750Z AUTO 14009KT 2400 -PL OVC002/// //////TCU 02/01 Q1007 RERA EGTE 211750Z 26012KT 9000 FEW011 BKN017 12/11 Q1008 EGVN 211750Z 21003KT 4500 RADZ FEW003 SCT006 BKN014 07/06 Q1005 YLO1 BECMG BKN010 GRN EGVN 211750Z 21003KT 4500 RADZ FEW003 SCT006 BKN014 07/06 Q1005 BECMG BKN010 EGWU 211750Z 08002KT 4000 RADZ BKN003 BKN005 05/04 Q1007 BECMG FEW003 BKN005 EGWU 211750Z 08002KT 4000 RADZ BKN003 BKN005 05/04 Q1007 YLO2 BECMG FEW003 BKN005 YLO1 GBYD 211800Z VRB03KT 9000 NSC 32/17 Q1010 KGNC 211755Z AUTO 27029G37KT 5SM HZ BKN001 13/M12 A2991 RMK AO2 T01331116 10136 20015 EGCN 211750Z 16009KT 6000 BKN004 02/02 Q1005 EGHQ 211750Z 26026KT 0500 R30/0450 -RA FG VV/// 11/10 Q1010 EGNR 211750Z 15006KT 9999 FEW007 SCT012 04/03 Q1003 EGVO 211750Z 22010KT 6000 RA SCT004 BKN018 OVC035 09/08 Q1006 YLO2 EGXV 211750Z AUTO 16008KT 9999 -RA OVC005/// 01/01 Q1005 EGTK 211750Z 21006KT 170V230 4700 BR RA SCT003 BKN005 BKN006 05/05 Q1005